createdAt,value
2023-08-04T00:19:30.522Z,33.88
2023-08-04T00:39:30.480Z,33.88
2023-08-04T02:39:30.267Z,33.87
2023-08-04T02:59:30.224Z,33.87
2023-08-04T03:19:30.203Z,33.87
2023-08-04T03:39:30.161Z,33.86
2023-08-04T03:59:30.128Z,33.86
2023-08-04T04:19:29.821Z,33.86
2023-08-04T04:39:30.055Z,33.86
2023-08-04T04:59:30.032Z,33.86
2023-08-04T05:19:29.980Z,33.85
2023-08-04T05:39:29.953Z,33.85
2023-08-04T05:59:29.643Z,33.86
2023-08-04T06:19:29.886Z,33.85
2023-08-04T06:39:29.847Z,33.84
2023-08-04T06:59:29.535Z,33.84
2023-08-04T07:19:29.775Z,33.84
2023-08-04T07:39:29.738Z,33.83
2023-08-04T07:59:29.723Z,33.83
2023-08-04T08:19:29.656Z,33.83
2023-08-04T08:39:29.636Z,33.82
2023-08-04T09:19:29.528Z,33.81
2023-08-04T09:59:29.484Z,33.81
2023-08-04T10:19:29.484Z,33.8
2023-08-04T10:39:31.417Z,33.79
2023-08-04T10:59:29.377Z,33.79
2023-08-04T11:39:29.322Z,33.78
2023-08-04T11:59:29.312Z,33.77
2023-08-04T12:19:29.263Z,33.77
2023-08-04T12:39:29.204Z,33.76
2023-08-04T13:39:29.115Z,33.73
2023-08-04T13:59:29.072Z,33.73
2023-08-04T14:19:29.033Z,33.72
2023-08-04T14:39:28.709Z,33.72
2023-08-04T14:59:28.968Z,33.71
2023-08-04T15:19:28.932Z,33.7
2023-08-04T15:39:28.885Z,33.69
2023-08-04T15:59:28.853Z,33.68
2023-08-04T16:19:28.794Z,33.68
2023-08-04T16:39:28.781Z,33.67
2023-08-04T17:19:28.706Z,33.66
2023-08-04T17:39:28.679Z,33.65
2023-08-04T17:59:28.362Z,33.65
2023-08-04T18:19:28.601Z,33.64
2023-08-04T18:39:28.566Z,33.63
2023-08-04T19:19:28.220Z,33.62
2023-08-04T19:39:28.455Z,33.61
2023-08-04T19:59:28.420Z,33.61
2023-08-04T20:19:28.400Z,33.6
2023-08-04T20:39:28.351Z,33.6
2023-08-04T21:19:28.280Z,33.6
2023-08-04T21:39:28.240Z,33.59
2023-08-04T21:59:28.224Z,33.59
2023-08-04T22:19:27.900Z,33.59
2023-08-04T22:39:28.167Z,33.59
2023-08-04T22:59:28.134Z,33.58
2023-08-04T23:19:28.086Z,33.58
2023-08-04T23:39:28.045Z,33.58
2023-08-04T23:59:28.000Z,33.58
